Time;durP1;ratioP1;P1;durP2;ratioP2;P2;SDS_P1;SDS_P2;PMS_P1;PMS_P2;Temp;Humidity;BMP_temperature;BMP_pressure;BME280_temperature;BME280_humidity;BME280_pressure;Samples;Min_cycle;Max_cycle;Signal;HPM_P1;HPM_P2
2022/10/24 00:02:29;;;;;;;7.30;6.70;;;13.40;99.90;;;;;;5220774;28;20190;-46
2022/10/24 00:05:03;;;;;;;8.47;6.40;;;13.40;99.90;;;;;;5211084;28;20794;-45
2022/10/24 00:07:33;;;;;;;9.30;6.57;;;13.30;99.90;;;;;;5215273;28;20253;-46
2022/10/24 00:10:05;;;;;;;9.30;6.40;;;13.30;99.90;;;;;;5225994;28;20445;-46
2022/10/24 00:12:36;;;;;;;12.47;8.40;;;13.40;99.90;;;;;;5211119;28;20194;-46
2022/10/24 00:15:07;;;;;;;9.03;6.70;;;13.30;99.90;;;;;;5208849;28;20438;-45
2022/10/24 00:17:38;;;;;;;11.43;7.00;;;13.40;99.90;;;;;;5216772;28;20211;-45
2022/10/24 00:20:09;;;;;;;9.27;7.47;;;13.20;99.90;;;;;;5225310;28;20450;-46
2022/10/24 00:22:40;;;;;;;9.33;6.90;;;13.20;99.90;;;;;;5218600;28;20179;-46
2022/10/24 00:25:11;;;;;;;9.80;6.60;;;13.20;99.90;;;;;;5209389;28;20921;-45
2022/10/24 00:27:41;;;;;;;11.30;6.93;;;13.40;99.90;;;;;;5227276;28;20265;-45
2022/10/24 00:30:12;;;;;;;8.77;6.87;;;13.50;99.90;;;;;;5215446;28;20221;-46
2022/10/24 00:32:42;;;;;;;24.13;9.00;;;13.60;99.90;;;;;;5228264;28;20222;-46
2022/10/24 00:35:13;;;;;;;12.00;7.87;;;13.50;99.90;;;;;;5220817;28;20213;-46
2022/10/24 00:37:44;;;;;;;11.83;8.30;;;13.50;99.90;;;;;;5212004;28;20208;-47
2022/10/24 00:40:18;;;;;;;12.57;9.17;;;13.40;99.90;;;;;;5219152;28;20991;-46
2022/10/24 00:42:48;;;;;;;8.83;7.20;;;13.40;99.90;;;;;;5222218;28;20200;-45
2022/10/24 00:45:44;;;;;;;15.00;10.17;;;13.40;99.90;;;;;;5210638;28;20438;-45
2022/10/24 00:48:35;;;;;;;12.27;8.27;;;13.40;99.90;;;;;;5214288;28;20188;-46
2022/10/24 00:51:20;;;;;;;14.53;8.30;;;13.40;99.90;;;;;;5217401;28;20472;-47
2022/10/24 00:53:56;;;;;;;11.10;7.70;;;13.50;99.90;;;;;;5223570;28;20529;-46
2022/10/24 00:56:33;;;;;;;10.40;8.17;;;13.30;99.90;;;;;;5212737;28;20448;-46
2022/10/24 00:59:07;;;;;;;11.13;8.63;;;13.30;99.90;;;;;;5226044;28;20825;-46
2022/10/24 01:01:38;;;;;;;8.70;7.80;;;13.40;99.90;;;;;;5223226;28;20508;-44
2022/10/24 01:04:12;;;;;;;12.23;8.50;;;13.30;99.90;;;;;;5213018;28;20493;-46
2022/10/24 01:07:01;;;;;;;8.60;7.80;;;13.20;99.90;;;;;;5212377;28;20434;-49
2022/10/24 01:09:53;;;;;;;12.40;8.90;;;13.10;99.90;;;;;;5233540;28;20468;-45
2022/10/24 01:12:53;;;;;;;15.03;8.87;;;13.00;99.90;;;;;;5221593;28;20430;-46
2022/10/24 01:16:01;;;;;;;9.20;8.10;;;13.00;99.90;;;;;;5218898;28;20460;-47
2022/10/24 01:18:48;;;;;;;8.20;7.17;;;13.10;99.90;;;;;;5223424;28;20491;-47
2022/10/24 01:21:32;;;;;;;24.30;8.97;;;13.10;99.90;;;;;;5230680;28;20434;-47
2022/10/24 01:24:31;;;;;;;9.77;7.23;;;13.00;99.90;;;;;;5217104;28;20492;-47
2022/10/24 01:27:11;;;;;;;9.33;7.37;;;13.00;99.90;;;;;;5221861;28;20444;-46
2022/10/24 01:29:59;;;;;;;20.27;10.10;;;13.00;99.90;;;;;;5221615;28;20457;-46
2022/10/24 01:32:39;;;;;;;8.83;7.80;;;13.20;99.90;;;;;;5224929;28;20437;-45
2022/10/24 01:35:39;;;;;;;18.40;10.57;;;13.40;99.90;;;;;;5230317;28;20451;-45
2022/10/24 01:38:28;;;;;;;10.60;8.97;;;13.30;99.90;;;;;;5226540;28;20970;-46
2022/10/24 01:41:09;;;;;;;13.23;7.87;;;13.20;99.90;;;;;;5225468;28;20472;-45
2022/10/24 01:43:50;;;;;;;12.43;8.33;;;13.40;99.90;;;;;;5223490;28;20410;-45
2022/10/24 01:46:25;;;;;;;16.50;10.73;;;13.10;99.90;;;;;;5216544;28;20436;-47
2022/10/24 01:49:05;;;;;;;12.57;9.93;;;13.30;99.90;;;;;;5225308;28;20439;-46
2022/10/24 01:51:37;;;;;;;10.63;8.10;;;13.20;99.90;;;;;;5213996;28;20450;-46
2022/10/24 01:54:09;;;;;;;8.33;7.50;;;13.20;99.90;;;;;;5226783;28;20437;-46
2022/10/24 01:56:40;;;;;;;8.10;6.90;;;13.30;99.90;;;;;;5222740;28;20438;-45
2022/10/24 01:59:28;;;;;;;12.20;7.40;;;13.20;99.90;;;;;;5211866;28;20469;-48
2022/10/24 02:02:11;;;;;;;8.43;7.30;;;13.00;99.90;;;;;;5212130;28;20598;-46
2022/10/24 02:05:11;;;;;;;12.13;8.93;;;13.10;99.90;;;;;;5212278;28;20460;-46
2022/10/24 02:07:46;;;;;;;18.60;10.00;;;13.00;99.90;;;;;;5229419;28;20540;-46
2022/10/24 02:10:22;;;;;;;9.47;7.50;;;13.00;99.90;;;;;;5210299;28;20442;-45
2022/10/24 02:12:58;;;;;;;10.77;7.77;;;13.00;99.90;;;;;;5217585;28;20791;-45
2022/10/24 02:15:33;;;;;;;14.63;9.30;;;12.90;99.90;;;;;;5216400;28;20953;-46
2022/10/24 02:18:03;;;;;;;15.17;9.63;;;12.80;99.90;;;;;;5222647;28;20518;-46
2022/10/24 02:20:41;;;;;;;9.87;7.60;;;12.80;99.90;;;;;;5220221;28;20457;-46
2022/10/24 02:23:33;;;;;;;15.37;7.90;;;12.90;99.90;;;;;;5211484;28;20519;-46
2022/10/24 02:26:09;;;;;;;10.40;7.63;;;12.80;99.90;;;;;;5217128;28;20793;-46
2022/10/24 02:28:44;;;;;;;14.73;8.50;;;12.70;99.90;;;;;;5229332;28;20437;-46
2022/10/24 02:31:22;;;;;;;19.20;9.90;;;12.70;99.90;;;;;;5211767;28;20472;-46
2022/10/24 02:33:55;;;;;;;9.10;7.33;;;12.70;99.90;;;;;;5222562;28;20448;-45
2022/10/24 02:36:28;;;;;;;8.40;7.60;;;12.60;99.90;;;;;;5223432;28;20799;-44
2022/10/24 02:39:00;;;;;;;19.43;8.70;;;12.70;99.90;;;;;;5218627;28;20473;-44
2022/10/24 02:41:34;;;;;;;15.37;11.23;;;12.70;99.90;;;;;;5198279;28;20445;-45
2022/10/24 02:44:06;;;;;;;11.97;9.30;;;12.60;99.90;;;;;;5213641;28;21005;-45
2022/10/24 02:46:38;;;;;;;20.53;10.33;;;12.60;99.90;;;;;;5222200;28;20548;-46
2022/10/24 02:49:09;;;;;;;22.97;11.73;;;12.50;99.90;;;;;;5212056;28;20981;-45
2022/10/24 02:51:43;;;;;;;21.83;13.93;;;12.50;99.90;;;;;;5221201;28;20434;-45
2022/10/24 02:54:14;;;;;;;23.20;12.93;;;12.50;99.90;;;;;;5218518;28;20194;-45
2022/10/24 02:56:53;;;;;;;15.60;10.70;;;12.40;99.90;;;;;;5211852;28;20768;-46
2022/10/24 02:59:24;;;;;;;11.63;8.70;;;12.40;99.90;;;;;;5224477;28;20250;-47
2022/10/24 03:01:55;;;;;;;9.30;7.20;;;12.40;99.90;;;;;;5223351;28;21018;-46
2022/10/24 03:04:25;;;;;;;18.50;11.60;;;12.40;99.90;;;;;;5222372;28;20258;-45
2022/10/24 03:06:56;;;;;;;21.20;10.37;;;12.30;99.90;;;;;;5234549;28;20448;-46
2022/10/24 03:09:26;;;;;;;10.03;8.10;;;12.30;99.90;;;;;;5221994;28;20238;-45
2022/10/24 03:11:57;;;;;;;10.77;7.43;;;12.40;99.90;;;;;;5214960;28;20230;-47
2022/10/24 03:14:27;;;;;;;29.03;11.43;;;12.50;99.90;;;;;;5216684;28;20194;-46
2022/10/24 03:16:58;;;;;;;14.57;8.60;;;12.50;99.90;;;;;;5217534;28;20526;-45
2022/10/24 03:19:29;;;;;;;16.50;9.37;;;12.50;99.90;;;;;;5222311;28;20215;-44
2022/10/24 03:21:59;;;;;;;8.20;7.20;;;12.50;99.90;;;;;;5226986;28;20183;-45
2022/10/24 03:24:30;;;;;;;10.60;7.30;;;12.50;99.90;;;;;;5224453;28;20187;-46
2022/10/24 03:27:00;;;;;;;14.80;8.33;;;12.40;99.90;;;;;;5221162;28;20186;-45
2022/10/24 03:29:31;;;;;;;7.93;7.10;;;12.60;99.90;;;;;;5230294;28;20305;-44
2022/10/24 03:32:01;;;;;;;21.00;10.57;;;12.50;99.90;;;;;;5216971;28;20183;-45
2022/10/24 03:34:32;;;;;;;11.17;7.87;;;12.50;99.90;;;;;;5211562;28;20183;-44
2022/10/24 03:37:03;;;;;;;12.10;7.03;;;12.50;99.90;;;;;;5215023;28;20199;-45
2022/10/24 03:39:33;;;;;;;15.17;7.93;;;12.40;99.90;;;;;;5220916;28;20215;-44
2022/10/24 03:42:04;;;;;;;11.50;6.93;;;12.50;99.90;;;;;;5220528;28;20528;-45
2022/10/24 03:44:35;;;;;;;10.30;6.87;;;12.70;99.90;;;;;;5215647;28;20242;-45
2022/10/24 03:47:05;;;;;;;9.40;7.00;;;12.60;99.90;;;;;;5211229;28;20187;-45
2022/10/24 03:49:36;;;;;;;9.53;5.50;;;12.50;99.90;;;;;;5219150;28;20290;-46
2022/10/24 03:52:07;;;;;;;10.83;7.20;;;12.50;99.90;;;;;;5211076;28;20191;-45
2022/10/24 03:54:38;;;;;;;7.60;5.13;;;12.40;99.90;;;;;;5210797;28;20203;-44
2022/10/24 03:57:08;;;;;;;6.90;6.20;;;12.30;99.90;;;;;;5202749;28;20191;-45
2022/10/24 03:59:39;;;;;;;9.43;6.50;;;12.30;99.90;;;;;;5214415;28;21080;-45
2022/10/24 04:02:10;;;;;;;6.20;5.50;;;12.30;99.90;;;;;;5216917;28;20183;-46
2022/10/24 04:04:41;;;;;;;5.97;5.47;;;12.20;99.90;;;;;;5217956;28;20195;-46
2022/10/24 04:07:11;;;;;;;5.90;5.33;;;12.20;99.90;;;;;;5207262;28;20572;-46
2022/10/24 04:09:42;;;;;;;9.90;7.27;;;12.10;99.90;;;;;;5207580;28;20215;-46
2022/10/24 04:12:12;;;;;;;19.70;5.67;;;12.20;99.90;;;;;;5217597;28;20281;-47
2022/10/24 04:14:43;;;;;;;8.10;5.90;;;12.20;99.90;;;;;;5222235;28;20188;-46
2022/10/24 04:17:14;;;;;;;10.37;6.20;;;12.20;99.90;;;;;;5225132;28;20203;-46
2022/10/24 04:19:45;;;;;;;6.93;5.70;;;12.20;99.90;;;;;;5215200;28;20207;-46
2022/10/24 04:22:16;;;;;;;5.90;5.40;;;12.20;99.90;;;;;;5209755;28;20203;-46
2022/10/24 04:24:47;;;;;;;13.73;6.77;;;12.10;99.90;;;;;;5208918;28;20180;-47
2022/10/24 04:27:18;;;;;;;5.47;4.93;;;12.20;99.90;;;;;;5220314;28;20654;-46
2022/10/24 04:29:48;;;;;;;5.80;5.10;;;12.10;99.90;;;;;;5210717;28;20573;-47
2022/10/24 04:32:19;;;;;;;6.43;5.60;;;12.10;99.90;;;;;;5225786;28;20438;-45
2022/10/24 04:34:50;;;;;;;5.73;5.23;;;12.00;99.90;;;;;;5208419;28;20788;-46
2022/10/24 04:37:20;;;;;;;6.10;5.50;;;12.30;99.90;;;;;;5220075;28;20545;-45
2022/10/24 04:39:53;;;;;;;6.27;5.30;;;12.20;99.90;;;;;;5211980;28;20246;-46
2022/10/24 04:42:24;;;;;;;10.20;6.57;;;12.20;99.90;;;;;;5216308;28;20203;-47
2022/10/24 04:44:55;;;;;;;9.30;6.70;;;12.30;99.90;;;;;;5219764;28;20429;-47
2022/10/24 04:47:25;;;;;;;7.10;5.67;;;12.20;99.90;;;;;;5211866;28;20430;-45
2022/10/24 04:49:56;;;;;;;6.33;5.80;;;12.20;99.90;;;;;;5206483;28;20203;-46
2022/10/24 04:52:27;;;;;;;7.70;5.67;;;12.20;99.90;;;;;;5210707;28;20309;-45
2022/10/24 04:54:58;;;;;;;6.10;5.13;;;12.10;99.90;;;;;;5221987;28;20517;-49
2022/10/24 04:57:28;;;;;;;6.50;5.40;;;12.20;99.90;;;;;;5214622;28;20194;-46
2022/10/24 04:59:59;;;;;;;12.83;6.17;;;12.20;99.90;;;;;;5215371;28;20294;-47
2022/10/24 05:02:29;;;;;;;6.20;5.50;;;12.50;99.90;;;;;;5212470;28;20648;-45
2022/10/24 05:05:00;;;;;;;7.87;6.00;;;12.60;99.90;;;;;;5224931;28;20537;-47
2022/10/24 05:07:31;;;;;;;12.87;7.07;;;12.60;99.90;;;;;;5225213;28;20639;-46
2022/10/24 05:10:02;;;;;;;7.40;6.33;;;12.40;99.90;;;;;;5222146;28;20659;-46
2022/10/24 05:12:33;;;;;;;9.77;6.17;;;12.30;99.90;;;;;;5226389;28;20241;-47
2022/10/24 05:15:05;;;;;;;12.43;6.10;;;12.30;99.90;;;;;;5219894;28;20544;-46
2022/10/24 05:17:35;;;;;;;11.43;6.40;;;12.30;99.90;;;;;;5223123;28;20243;-45
2022/10/24 05:20:07;;;;;;;7.50;5.93;;;12.20;99.90;;;;;;5220987;28;20929;-46
2022/10/24 05:22:37;;;;;;;14.70;7.13;;;12.30;99.90;;;;;;5215146;28;20266;-47
2022/10/24 05:25:08;;;;;;;11.13;6.30;;;12.30;99.90;;;;;;5220791;28;20516;-47
2022/10/24 05:27:39;;;;;;;10.47;6.10;;;12.30;99.90;;;;;;5225250;28;20179;-47
2022/10/24 05:30:10;;;;;;;12.20;6.27;;;12.30;99.90;;;;;;5205669;28;20257;-46
2022/10/24 05:32:40;;;;;;;11.63;6.93;;;12.20;99.90;;;;;;5222416;28;20196;-47
2022/10/24 05:35:11;;;;;;;11.27;5.50;;;12.20;99.90;;;;;;5227404;28;20428;-48
2022/10/24 05:37:42;;;;;;;8.50;7.13;;;12.50;99.90;;;;;;5226917;28;20290;-47
2022/10/24 05:40:13;;;;;;;8.83;6.07;;;12.60;99.90;;;;;;5227840;28;20261;-45
2022/10/24 05:42:44;;;;;;;9.20;6.50;;;12.40;99.90;;;;;;5230940;28;20433;-46
2022/10/24 05:45:14;;;;;;;8.77;6.33;;;12.30;99.90;;;;;;5228340;28;20183;-47
2022/10/24 05:47:45;;;;;;;6.60;6.00;;;12.30;99.90;;;;;;5227415;28;20556;-47
2022/10/24 05:50:16;;;;;;;11.00;5.97;;;12.30;99.90;;;;;;5218153;28;20211;-46
2022/10/24 05:52:46;;;;;;;6.73;6.03;;;12.30;99.90;;;;;;5229593;28;20213;-47
2022/10/24 05:55:17;;;;;;;19.00;8.20;;;12.30;99.90;;;;;;5225121;28;20196;-47
2022/10/24 05:57:47;;;;;;;11.27;6.37;;;12.20;99.90;;;;;;5226189;28;20277;-45
2022/10/24 06:00:18;;;;;;;12.97;6.33;;;12.20;99.90;;;;;;5228679;28;20214;-46
2022/10/24 06:02:49;;;;;;;6.67;5.97;;;12.30;99.90;;;;;;5221996;28;20537;-46
2022/10/24 06:05:20;;;;;;;9.53;7.23;;;12.30;99.90;;;;;;5226694;28;20187;-48
2022/10/24 06:07:51;;;;;;;15.20;6.73;;;12.20;99.90;;;;;;5219141;28;20190;-46
2022/10/24 06:10:21;;;;;;;7.70;6.83;;;12.50;99.90;;;;;;5217546;28;20460;-46
2022/10/24 06:12:52;;;;;;;10.90;7.00;;;12.40;99.90;;;;;;5215193;28;20210;-46
2022/10/24 06:15:22;;;;;;;15.97;9.30;;;12.60;99.90;;;;;;5208724;28;20199;-49
2022/10/24 06:17:53;;;;;;;18.53;9.40;;;12.40;99.90;;;;;;5226497;28;20207;-47
2022/10/24 06:20:23;;;;;;;22.77;11.37;;;12.40;99.90;;;;;;5220929;28;20191;-52
2022/10/24 06:22:54;;;;;;;20.10;11.57;;;12.40;99.90;;;;;;5229985;28;20183;-49
2022/10/24 06:25:25;;;;;;;17.43;8.80;;;12.40;99.90;;;;;;5229265;28;20663;-46
2022/10/24 06:27:55;;;;;;;12.93;9.20;;;12.40;99.90;;;;;;5224636;28;20198;-48
2022/10/24 06:30:26;;;;;;;30.23;11.20;;;12.60;99.90;;;;;;5227805;28;20670;-48
2022/10/24 06:32:56;;;;;;;18.33;9.40;;;12.50;99.90;;;;;;5225433;28;20249;-45
2022/10/24 06:35:27;;;;;;;17.70;11.03;;;12.50;99.90;;;;;;5220894;28;20184;-46
2022/10/24 06:37:57;;;;;;;24.77;9.50;;;12.60;99.90;;;;;;5223435;28;20264;-47
2022/10/24 06:40:28;;;;;;;25.67;10.67;;;12.80;99.90;;;;;;5222623;28;20289;-46
2022/10/24 06:42:59;;;;;;;19.27;10.27;;;12.80;99.90;;;;;;5199455;28;20241;-49
2022/10/24 06:45:29;;;;;;;21.13;11.33;;;12.70;99.90;;;;;;5217513;28;20232;-47
2022/10/24 06:48:00;;;;;;;22.27;11.97;;;12.70;99.90;;;;;;5223396;28;20590;-45
2022/10/24 06:50:31;;;;;;;15.73;8.70;;;12.90;99.90;;;;;;5221998;28;20724;-47
2022/10/24 06:53:01;;;;;;;12.20;9.00;;;12.90;99.90;;;;;;5218433;28;20515;-47
2022/10/24 06:55:32;;;;;;;21.80;11.90;;;13.00;99.90;;;;;;5219725;28;20195;-48
2022/10/24 06:58:05;;;;;;;17.10;9.70;;;13.10;99.90;;;;;;5227325;28;20320;-48
2022/10/24 07:00:37;;;;;;;22.60;10.70;;;13.10;99.90;;;;;;5210799;28;20221;-46
2022/10/24 07:03:13;;;;;;;12.33;7.83;;;13.10;99.90;;;;;;5219725;28;20430;-46
2022/10/24 07:05:44;;;;;;;10.57;8.27;;;13.20;99.90;;;;;;5219353;28;20418;-46
2022/10/24 07:08:14;;;;;;;17.27;10.47;;;13.20;99.90;;;;;;5211574;28;20436;-47
2022/10/24 07:10:45;;;;;;;13.50;8.17;;;13.20;99.90;;;;;;5221925;28;20678;-47
2022/10/24 07:13:15;;;;;;;15.40;8.90;;;13.30;99.90;;;;;;5222359;28;20183;-46
2022/10/24 07:15:46;;;;;;;10.30;7.87;;;13.30;99.90;;;;;;5227450;28;20255;-47
2022/10/24 07:18:17;;;;;;;11.20;9.20;;;13.40;99.90;;;;;;5227575;28;20203;-46
2022/10/24 07:20:47;;;;;;;15.53;8.90;;;13.30;99.90;;;;;;5219551;28;20207;-46
2022/10/24 07:23:18;;;;;;;18.73;10.50;;;13.30;99.90;;;;;;5227898;28;20193;-48
2022/10/24 07:25:49;;;;;;;14.77;8.07;;;13.40;99.90;;;;;;5223122;28;20187;-47
2022/10/24 07:28:19;;;;;;;15.37;8.33;;;13.50;99.90;;;;;;5218668;28;20437;-48
2022/10/24 07:30:50;;;;;;;16.00;9.70;;;13.50;99.90;;;;;;5220806;28;20211;-49
2022/10/24 07:33:20;;;;;;;20.17;9.87;;;13.50;99.90;;;;;;5218619;28;20262;-46
2022/10/24 07:35:51;;;;;;;11.53;8.03;;;13.60;99.90;;;;;;5224852;28;20412;-46
2022/10/24 07:38:22;;;;;;;21.10;9.10;;;13.70;99.90;;;;;;5226440;28;20264;-46
2022/10/24 07:40:52;;;;;;;18.80;9.10;;;13.70;99.90;;;;;;5223770;28;20608;-47
2022/10/24 07:43:23;;;;;;;21.60;9.27;;;13.80;99.90;;;;;;5225818;28;20190;-46
2022/10/24 07:45:54;;;;;;;9.03;7.57;;;13.80;99.90;;;;;;5222002;28;20236;-48
2022/10/24 07:48:24;;;;;;;9.57;7.20;;;13.90;99.90;;;;;;5215965;28;20191;-45
2022/10/24 07:50:55;;;;;;;18.00;8.27;;;14.10;99.90;;;;;;5223863;28;20231;-46
2022/10/24 07:53:26;;;;;;;9.83;6.53;;;14.10;99.90;;;;;;5220174;28;20196;-47
2022/10/24 07:55:59;;;;;;;11.20;6.93;;;14.20;99.90;;;;;;5218372;28;20241;-46
2022/10/24 07:58:29;;;;;;;6.73;6.10;;;14.30;99.90;;;;;;5216770;28;20465;-48
2022/10/24 08:01:18;;;;;;;17.23;9.00;;;14.40;99.90;;;;;;5216439;28;20487;-45
2022/10/24 08:03:49;;;;;;;11.33;6.40;;;14.50;99.90;;;;;;5214360;28;20210;-51
2022/10/24 08:06:23;;;;;;;16.40;6.67;;;14.50;99.90;;;;;;5216462;28;20442;-46
2022/10/24 08:08:54;;;;;;;7.33;6.07;;;14.60;99.90;;;;;;5221679;28;20186;-47
2022/10/24 08:11:27;;;;;;;8.60;5.70;;;14.70;99.90;;;;;;5216739;28;20498;-46
2022/10/24 08:13:57;;;;;;;11.90;5.47;;;14.80;99.90;;;;;;5220174;28;20182;-47
2022/10/24 08:16:28;;;;;;;7.23;5.50;;;14.90;99.90;;;;;;5218207;28;20961;-48
2022/10/24 08:18:58;;;;;;;14.30;5.83;;;14.80;99.90;;;;;;5200807;28;20595;-46
2022/10/24 08:21:30;;;;;;;13.43;5.97;;;14.90;99.90;;;;;;5222340;28;20253;-46
2022/10/24 08:24:01;;;;;;;11.10;5.00;;;15.00;99.90;;;;;;5235339;28;20199;-46
2022/10/24 08:26:31;;;;;;;6.53;4.60;;;15.20;99.90;;;;;;5215208;28;20872;-48
2022/10/24 08:29:03;;;;;;;14.87;5.50;;;15.30;99.90;;;;;;5216503;28;20721;-47
2022/10/24 08:31:34;;;;;;;15.30;4.97;;;15.60;99.90;;;;;;5217656;28;20186;-46
2022/10/24 08:34:05;;;;;;;5.60;4.27;;;15.60;99.90;;;;;;5217927;28;20498;-48
2022/10/24 08:36:36;;;;;;;6.30;3.90;;;15.70;99.90;;;;;;5222696;28;20477;-49
2022/10/24 08:39:07;;;;;;;7.40;5.03;;;15.80;99.90;;;;;;5220940;28;20345;-48
2022/10/24 08:41:45;;;;;;;9.50;4.70;;;15.90;99.90;;;;;;5217949;28;20203;-45
2022/10/24 08:44:34;;;;;;;12.23;5.27;;;16.00;99.90;;;;;;5219967;28;20665;-47
2022/10/24 08:47:43;;;;;;;6.20;3.70;;;16.00;99.90;;;;;;5213863;28;20494;-48
2022/10/24 08:50:35;;;;;;;10.13;3.83;;;16.20;99.90;;;;;;5218768;28;20536;-47
2022/10/24 08:53:11;;;;;;;4.03;3.43;;;16.30;99.90;;;;;;5218826;28;20500;-48
2022/10/24 08:55:46;;;;;;;9.30;4.73;;;16.40;99.90;;;;;;5213817;28;20445;-50
2022/10/24 08:58:25;;;;;;;10.70;4.00;;;16.50;99.90;;;;;;5218306;28;20471;-47
2022/10/24 09:00:59;;;;;;;8.23;4.47;;;16.50;99.90;;;;;;5228297;28;20929;-47
2022/10/24 09:03:42;;;;;;;10.43;3.87;;;16.70;99.90;;;;;;5217167;28;20445;-47
2022/10/24 09:06:20;;;;;;;7.03;4.00;;;16.80;99.90;;;;;;5220047;28;20849;-47
2022/10/24 09:09:03;;;;;;;9.47;3.40;;;16.90;99.90;;;;;;5216904;28;20532;-47
2022/10/24 09:12:09;;;;;;;9.03;3.70;;;17.20;99.90;;;;;;5218576;28;20445;-46
2022/10/24 09:14:46;;;;;;;11.00;3.80;;;17.10;99.90;;;;;;5237689;28;20777;-47
2022/10/24 09:17:32;;;;;;;8.53;2.77;;;17.20;99.90;;;;;;5223627;28;20996;-47
2022/10/24 09:20:27;;;;;;;5.13;3.10;;;17.30;99.90;;;;;;5229132;28;20465;-48
2022/10/24 09:23:02;;;;;;;5.17;3.40;;;17.50;99.90;;;;;;5225472;28;20464;-48
2022/10/24 09:25:35;;;;;;;5.97;3.50;;;17.50;99.90;;;;;;5226198;28;20539;-48
2022/10/24 09:28:06;;;;;;;5.70;4.30;;;17.70;99.90;;;;;;5228472;28;20959;-47
2022/10/24 09:30:37;;;;;;;10.60;3.47;;;17.60;99.90;;;;;;5224446;28;20493;-50
2022/10/24 09:33:33;;;;;;;9.30;3.40;;;17.80;99.90;;;;;;5207127;28;20201;-49
2022/10/24 09:36:04;;;;;;;5.80;3.20;;;17.80;99.90;;;;;;5218006;28;20627;-49
2022/10/24 09:38:37;;;;;;;11.73;3.53;;;18.10;99.90;;;;;;5222688;28;20813;-47
2022/10/24 09:41:24;;;;;;;15.53;3.20;;;18.00;99.90;;;;;;5212775;28;20450;-49
2022/10/24 09:43:57;;;;;;;3.60;2.80;;;18.00;99.90;;;;;;5219869;28;20433;-48
2022/10/24 09:46:35;;;;;;;16.23;3.43;;;18.10;99.90;;;;;;5220934;28;20457;-49
2022/10/24 09:49:18;;;;;;;11.63;2.50;;;18.10;99.90;;;;;;5217804;28;20465;-48
2022/10/24 09:52:03;;;;;;;5.00;2.70;;;18.30;99.90;;;;;;5217132;28;20433;-48
2022/10/24 09:54:35;;;;;;;3.63;2.90;;;18.40;99.90;;;;;;5219549;28;20461;-48
2022/10/24 09:57:11;;;;;;;4.87;2.60;;;18.50;99.90;;;;;;5221549;28;20540;-49
2022/10/24 09:59:48;;;;;;;7.53;2.83;;;18.50;99.90;;;;;;5238089;22;20530;-52
2022/10/24 10:02:23;;;;;;;3.60;2.47;;;18.60;99.90;;;;;;5239550;28;20432;-51
2022/10/24 10:05:03;;;;;;;4.73;2.80;;;18.80;99.90;;;;;;5236670;28;20966;-53
2022/10/24 10:07:36;;;;;;;13.73;3.37;;;18.80;99.90;;;;;;5246613;28;20457;-53
2022/10/24 10:10:30;;;;;;;9.30;2.67;;;18.90;99.90;;;;;;5262857;28;20780;-53
2022/10/24 10:13:06;;;;;;;6.70;3.10;;;19.00;99.90;;;;;;5252477;28;20799;-52
2022/10/24 10:15:44;;;;;;;5.10;2.60;;;19.20;99.90;;;;;;5240460;28;20777;-52
2022/10/24 10:18:24;;;;;;;8.70;3.33;;;19.20;99.90;;;;;;5239841;28;20860;-51
2022/10/24 10:21:00;;;;;;;7.20;2.53;;;19.30;99.90;;;;;;5236900;28;20456;-53
2022/10/24 10:23:49;;;;;;;7.30;3.17;;;19.30;99.90;;;;;;5232431;28;20416;-54
2022/10/24 10:26:42;;;;;;;11.80;3.43;;;19.40;99.90;;;;;;5246468;28;20832;-52
2022/10/24 10:29:17;;;;;;;13.03;2.90;;;19.40;99.90;;;;;;5243174;28;20459;-54
2022/10/24 10:32:11;;;;;;;2.07;1.90;;;19.40;99.90;;;;;;5239212;28;20815;-53
2022/10/24 10:34:46;;;;;;;4.20;2.37;;;19.40;99.90;;;;;;5245471;28;20444;-51
2022/10/24 10:37:27;;;;;;;7.17;2.60;;;19.40;99.90;;;;;;5246162;28;20436;-53
2022/10/24 10:40:07;;;;;;;4.63;2.30;;;19.50;99.90;;;;;;5246730;28;21025;-53
2022/10/24 10:42:41;;;;;;;8.60;2.77;;;19.50;99.90;;;;;;5243538;28;20871;-54
2022/10/24 10:45:20;;;;;;;3.13;2.40;;;19.50;99.90;;;;;;5239940;28;20432;-53
2022/10/24 10:48:31;;;;;;;5.70;2.50;;;19.40;99.90;;;;;;5244479;28;20437;-52
2022/10/24 10:51:14;;;;;;;9.00;3.07;;;19.50;99.90;;;;;;5207672;28;20465;-54
2022/10/24 10:54:05;;;;;;;4.63;2.83;;;19.40;99.90;;;;;;5243210;28;20428;-53
2022/10/24 10:57:08;;;;;;;6.07;2.63;;;19.30;99.90;;;;;;5240848;28;20957;-53
2022/10/24 10:59:54;;;;;;;3.50;2.37;;;19.30;99.90;;;;;;5244534;28;20468;-53
2022/10/24 11:03:02;;;;;;;6.47;3.00;;;19.30;99.90;;;;;;5236986;28;20500;-54
2022/10/24 11:05:50;;;;;;;6.73;2.67;;;19.30;99.90;;;;;;5259250;28;20446;-51
2022/10/24 11:08:45;;;;;;;2.90;2.57;;;19.40;99.90;;;;;;5244304;28;20970;-53
2022/10/24 11:11:21;;;;;;;4.93;3.00;;;19.30;99.90;;;;;;5242056;28;20463;-54
2022/10/24 11:14:01;;;;;;;10.83;2.80;;;19.20;99.90;;;;;;5258717;28;20432;-54
2022/10/24 11:16:32;;;;;;;6.27;2.10;;;19.30;99.90;;;;;;5241554;28;20432;-52
2022/10/24 11:19:21;;;;;;;7.83;2.57;;;19.40;99.90;;;;;;5235045;28;20539;-53
2022/10/24 11:21:54;;;;;;;7.10;2.43;;;19.40;99.90;;;;;;5243630;28;20944;-53
2022/10/24 11:24:26;;;;;;;5.27;2.03;;;19.50;99.90;;;;;;5242697;28;20532;-54
2022/10/24 11:27:23;;;;;;;6.23;2.40;;;19.50;99.90;;;;;;5247603;28;20505;-53
2022/10/24 11:30:14;;;;;;;6.37;2.50;;;19.60;99.90;;;;;;5237471;28;20457;-52
2022/10/24 11:32:56;;;;;;;9.40;2.67;;;19.50;99.90;;;;;;5253733;28;20449;-55
2022/10/24 11:35:31;;;;;;;2.00;1.63;;;19.50;99.90;;;;;;5242074;28;20436;-54
2022/10/24 11:38:13;;;;;;;2.90;2.30;;;19.60;99.90;;;;;;5239842;28;20576;-55
2022/10/24 11:40:47;;;;;;;13.40;2.80;;;19.60;99.90;;;;;;5239323;28;20516;-53
2022/10/24 11:43:17;;;;;;;3.33;2.30;;;19.80;99.90;;;;;;5243837;28;20465;-55
2022/10/24 11:46:03;;;;;;;6.13;2.30;;;19.80;99.90;;;;;;5241116;28;20432;-51
2022/10/24 11:48:39;;;;;;;5.57;2.20;;;19.60;99.90;;;;;;5236921;28;20178;-54
2022/10/24 11:51:34;;;;;;;3.13;2.50;;;19.50;99.90;;;;;;5239975;28;21304;-53
2022/10/24 11:54:32;;;;;;;6.77;3.00;;;19.50;99.90;;;;;;5242700;28;20436;-53
2022/10/24 11:57:12;;;;;;;4.73;1.93;;;19.50;99.90;;;;;;5240091;28;20441;-55
2022/10/24 11:59:43;;;;;;;13.30;2.70;;;19.40;99.90;;;;;;5237664;28;20468;-52
2022/10/24 12:02:43;;;;;;;14.53;2.20;;;19.50;99.90;;;;;;5243756;28;20932;-53
2022/10/24 12:05:36;;;;;;;8.27;2.40;;;19.50;99.90;;;;;;5242048;28;20265;-54
2022/10/24 12:08:12;;;;;;;4.83;2.13;;;19.50;99.90;;;;;;5240930;28;20432;-51
2022/10/24 12:11:20;;;;;;;3.40;1.90;;;19.50;99.90;;;;;;5244315;28;20521;-54
2022/10/24 12:14:01;;;;;;;3.73;2.57;;;19.50;99.90;;;;;;5219333;28;20791;-52
2022/10/24 12:16:45;;;;;;;6.40;2.37;;;19.60;99.90;;;;;;5243707;28;21011;-53
2022/10/24 12:19:20;;;;;;;4.37;2.60;;;19.50;99.90;;;;;;5238901;28;20452;-54
2022/10/24 12:21:51;;;;;;;3.60;2.50;;;19.50;99.90;;;;;;5240648;28;20913;-53
2022/10/24 12:24:32;;;;;;;8.20;2.40;;;19.60;99.90;;;;;;5241970;28;20432;-51
2022/10/24 12:27:05;;;;;;;1.80;1.70;;;19.60;99.90;;;;;;5245691;28;20429;-50
2022/10/24 12:29:36;;;;;;;14.87;3.30;;;19.70;99.90;;;;;;5243450;28;20452;-52
2022/10/24 12:32:31;;;;;;;3.53;1.90;;;19.70;99.90;;;;;;5227907;28;20595;-53
2022/10/24 12:35:22;;;;;;;4.77;1.73;;;19.70;99.90;;;;;;5241061;28;20273;-53
2022/10/24 12:37:53;;;;;;;2.53;1.90;;;19.80;99.90;;;;;;5240332;28;20524;-54
2022/10/24 12:40:47;;;;;;;9.33;2.67;;;19.70;99.90;;;;;;5243764;28;20551;-54
2022/10/24 12:43:44;;;;;;;5.97;2.20;;;19.60;99.90;;;;;;5240702;28;20622;-53
2022/10/24 12:46:15;;;;;;;4.33;2.20;;;19.60;99.90;;;;;;5242137;28;20564;-53
2022/10/24 12:48:58;;;;;;;8.03;2.93;;;19.60;99.90;;;;;;5244861;28;20500;-53
2022/10/24 12:51:48;;;;;;;8.93;1.60;;;19.60;99.90;;;;;;5240798;28;20549;-53
2022/10/24 12:54:38;;;;;;;7.47;2.10;;;19.50;99.90;;;;;;5238167;28;20436;-52
2022/10/24 12:57:12;;;;;;;4.00;2.97;;;19.60;99.90;;;;;;5244666;28;20447;-53
2022/10/24 12:59:56;;;;;;;2.10;2.00;;;19.60;99.90;;;;;;5241172;28;20864;-52
2022/10/24 13:02:30;;;;;;;16.00;2.73;;;19.60;99.90;;;;;;5244570;28;20421;-52
2022/10/24 13:05:27;;;;;;;10.60;2.30;;;19.80;99.90;;;;;;5245498;28;20809;-51
2022/10/24 13:08:12;;;;;;;15.13;2.77;;;19.90;99.90;;;;;;5235756;28;20961;-53
2022/10/24 13:10:46;;;;;;;6.20;1.90;;;20.10;99.90;;;;;;5238685;28;20471;-52
2022/10/24 13:13:29;;;;;;;9.30;2.43;;;20.10;99.90;;;;;;5243790;28;20827;-53
2022/10/24 13:16:19;;;;;;;6.80;2.03;;;20.00;99.90;;;;;;5234379;28;20444;-53
2022/10/24 13:19:01;;;;;;;4.53;2.20;;;19.90;99.90;;;;;;5243148;28;20468;-52
2022/10/24 13:21:48;;;;;;;9.43;3.00;;;19.80;99.90;;;;;;5238025;28;20464;-54
2022/10/24 13:24:27;;;;;;;12.93;2.73;;;19.80;99.90;;;;;;5232587;28;20433;-53
2022/10/24 13:27:07;;;;;;;2.70;2.00;;;19.60;99.90;;;;;;5243539;28;20512;-52
2022/10/24 13:29:38;;;;;;;3.03;1.83;;;19.50;99.90;;;;;;5238716;28;20456;-52